Vallermosa — IBZT — position and weather

sailwx.info

Track history (hours):
 
Tides and Currents Weather Stations Pressure Air Temp Water Temp Dewpoint Dewpoint Depression Visibility Wind Speed Wind Dir Waves Ship Positions

Vallermosa

Last reported at 2017-Oct-10 12:47 UTC. Time now 2017-Oct-20 08:45 UTC.
Position N 40°58' E 028°57'.
Warning: this ship's position is 9 days out of date.

Length 176 m; draft 7.5 m.

Type: Tanker. MMSI: 247078500.

Date/timePositionNaut miles runAvg speedWind from/ knotsBaromVisibWave heightAir tempDewpointWater temp
2017-Oct-10 12:47N 40°58' E 028°57'  
2017-Oct-07 16:21N 41°01' E 029°00'5 9.9
2017-Oct-07 15:51N 40°56' E 028°59'3 7.6
2017-Oct-07 15:30N 40°54' E 029°00'4 7.5
2017-Oct-07 14:56N 40°50' E 028°59'10 5.0
2017-Oct-07 12:55N 40°42' E 028°51'4 1.1
2017-Oct-07 09:36N 40°45' E 028°49'0 1.1
2017-Oct-07 09:30N 40°45' E 028°49'1 1.2
2017-Oct-07 09:00N 40°46' E 028°49'1 1.6
2017-Oct-07 08:21N 40°47' E 028°49'1 1.3
2017-Oct-07 07:17N 40°47' E 028°47'0 0.9
2017-Oct-07 06:46N 40°48' E 028°47'0 0.3
2017-Oct-07 06:23N 40°48' E 028°47'  
Track history (hours):
 
Tides and Currents Weather Stations Pressure Air Temp Water Temp Dewpoint Dewpoint Depression Visibility Wind Speed Wind Dir Waves Ship Positions

Vallermosa

Last reported at 2017-Oct-10 12:47 UTC. Time now 2017-Oct-20 08:45 UTC.
Position N 40°58' E 028°57'.
Warning: this ship's position is 9 days out of date.

Length 176 m; draft 7.5 m.

Type: Tanker. MMSI: 247078500.

Date/timePositionNaut miles runAvg speedWind from/ knotsBaromVisibWave heightAir tempDewpointWater temp
2017-Oct-10 12:47N 40°58' E 028°57'  
2017-Oct-07 16:21N 41°01' E 029°00'5 9.9
2017-Oct-07 15:51N 40°56' E 028°59'3 7.6
2017-Oct-07 15:30N 40°54' E 029°00'4 7.5
2017-Oct-07 14:56N 40°50' E 028°59'10 5.0
2017-Oct-07 12:55N 40°42' E 028°51'4 1.1
2017-Oct-07 09:36N 40°45' E 028°49'0 1.1
2017-Oct-07 09:30N 40°45' E 028°49'1 1.2
2017-Oct-07 09:00N 40°46' E 028°49'1 1.6
2017-Oct-07 08:21N 40°47' E 028°49'1 1.3
2017-Oct-07 07:17N 40°47' E 028°47'0 0.9
2017-Oct-07 06:46N 40°48' E 028°47'0 0.3
2017-Oct-07 06:23N 40°48' E 028°47'  

Dump ship's entire track history